Atlantic - Newfoundland: Past 24 Hour Conditions

 

Nickerson Bank - 44251

06:00 AM ADT 30 June 2015Buoy position: 46.45N 53.38W
Disclaimer

This table is a summary of hourly weather conditions for the past 24 hours.
Please note that these observations might not always be representative of weather conditions over their associated marine area.

Date / Time
(ADT)
Wind(knots) Wave height(m) Wave period(s) Pressure(kPa) Air tempC) Water tempC)
30 June 2015
6:00 SW 10 gust 12 2.3 8.0 101.6 8 10
5:00 SW 10 gust 12 2.5 9.0 101.5 8 10
4:00 SW 10 gust 12 2.5 8.0 101.5 9 10
3:00 S 10 gust 14 2.8 9.0 101.5 8 9
2:00 SSE 12 gust 16 2.9 8.0 101.5 8 9
1:00 SSE 16 gust 18 2.6 9.0 101.5 9 9
0:00 SE 16 gust 19 2.6 8.0 101.6 9 9
29 June 2015
23:00 SE 19 N/A N/A N/A N/A N/A
22:00 ESE 21 gust 25 2.2 6.0 101.7 9 10
21:00 ESE 21 gust 25 1.8 5.0 101.7 9 10
20:00 ESE 19 gust 25 1.6 4.0 101.8 9 10
19:00 E 21 gust 25 1.3 10.0 101.8 9 10
18:00 E 18 gust 21 1.2 10.0 101.9 8 10
17:00 E 16 gust 18 1.0 8.0 102.1 9 10
16:00 E 14 gust 16 1.0 10.0 102.1 9 10
15:00 E 10 gust 12 1.1 10.0 102.2 9 10
14:00 ESE 10 gust 12 1.0 8.0 102.3 10 10
13:00 ESE 12 gust 14 1.1 8.0 102.3 9 10
12:00 SE 10 gust 10 1.2 8.0 102.3 9 10
11:00 SE 8 gust 12 1.0 9.0 102.4 9 10
10:00 ESE 6 gust 10 1.2 9.0 102.4 9 10
9:00 SE 6 gust 8 1.2 10.0 102.5 9 10
8:00 S 6 gust 8 1.2 10.0 102.5 9 10
7:00 S 8 gust 8 1.2 9.0 102.5 8 10
6:00 SSW 4 gust 6 1.1 10.0 102.5 8 10

Zoom-in to make a selection

Map of Atlantic - Newfoundland marine weather areas Southwestern Grand Banks - 44138 Banquereau - 44139 Tail of the Bank - 44140 Nickerson Bank - 44251 Northeast Burgeo Bank - 44255 Blanc-Sablon Airport Cap Whittle Chevery Natashquan Airport Heath Point Miscou Island Grand Étang Ingonish Beach North Mountain St.Paul Island J.A. Douglas McCurdy Sydney Airport Charlottetown Airport East Point North Cape Argentia Bonavista Burgeo Cape Race Corner Brook Daniel's Harbour Englee Ferolle Point La Scie Port aux Basques Rocky Harbour Sagona Island St. Anthony Airport St. John's Int'l Airport St. Lawrence Stephenville Airport Twillingate Winterland Wreckhouse Cartwright Airport Mary's Harbour Grates Cove Pool's Island Marticot Island Long Pond Eskasoni (First Nations) Îles de la Madeleine Airport
Legend:
buoy Buoy
land station Land Station

Atlantic - Newfoundland Area

Another Region

What we are doing

Date modified: